Time;durP1;ratioP1;P1;durP2;ratioP2;P2;SDS_P1;SDS_P2;PMS_P1;PMS_P2;Temp;Humidity;BMP_temperature;BMP_pressure;BME280_temperature;BME280_humidity;BME280_pressure;Samples;Min_cycle;Max_cycle;Signal;HPM_P1;HPM_P2
2021/05/24 00:01:49;;;;;;;2.80;2.12;;;;;;;41.64;26.40;162186.31;1698785;84;22048;-81
2021/05/24 00:04:21;;;;;;;2.65;2.20;;;;;;;41.66;26.34;162191.69;1698896;84;21195;-81
2021/05/24 00:06:55;;;;;;;3.87;2.33;;;;;;;41.63;26.34;162184.94;1698655;84;21343;-81
2021/05/24 00:09:29;;;;;;;4.42;2.60;;;;;;;41.54;26.39;162159.41;1698648;84;21908;-81
2021/05/24 00:12:02;;;;;;;2.35;1.80;;;;;;;41.60;26.35;162175.55;1698725;84;21324;-81
2021/05/24 00:14:38;;;;;;;3.87;2.33;;;;;;;41.52;26.41;162155.34;1698898;84;21218;-81
2021/05/24 00:17:11;;;;;;;3.58;2.70;;;;;;;41.57;26.36;162167.47;1704154;83;21262;-80
2021/05/24 00:19:45;;;;;;;4.12;2.58;;;;;;;41.48;26.39;162143.27;1698680;84;21778;-80
2021/05/24 00:22:17;;;;;;;3.62;2.27;;;;;;;41.38;26.48;162117.75;1698804;84;21856;-81
2021/05/24 00:24:51;;;;;;;2.85;1.95;;;;;;;41.37;26.49;162113.73;1698543;84;21709;-81
2021/05/24 00:27:24;;;;;;;5.65;2.50;;;;;;;41.27;26.52;162088.22;1698825;84;21234;-81
2021/05/24 00:29:57;;;;;;;4.25;1.90;;;;;;;41.17;26.60;162061.38;1698804;84;21235;-80
2021/05/24 00:32:30;;;;;;;3.75;2.60;;;;;;;41.08;26.69;162037.17;1698750;84;21234;-80
2021/05/24 00:35:03;;;;;;;2.70;2.17;;;;;;;41.19;26.61;162066.75;1698803;84;21285;-81
2021/05/24 00:37:36;;;;;;;3.15;2.10;;;;;;;40.75;27.01;161945.91;1698920;84;21266;-81
2021/05/24 00:40:10;;;;;;;6.10;2.30;;;;;;;41.31;26.54;162098.97;1698767;84;22051;-81
2021/05/24 00:42:42;;;;;;;3.17;1.90;;;;;;;41.11;26.67;162043.88;1698849;84;21226;-81
2021/05/24 00:45:15;;;;;;;3.60;1.90;;;;;;;41.09;26.69;162039.86;1698854;84;21571;-81
2021/05/24 00:47:48;;;;;;;4.10;2.52;;;;;;;40.99;26.79;162011.66;1698710;84;21526;-81
2021/05/24 00:50:21;;;;;;;3.05;2.02;;;;;;;40.98;26.80;162010.34;1698805;84;21229;-81
2021/05/24 00:52:54;;;;;;;2.98;2.15;;;;;;;41.04;26.81;162026.42;1698741;84;21622;-81
2021/05/24 00:55:27;;;;;;;2.65;2.10;;;;;;;40.95;26.86;162002.27;1698814;84;21496;-81
2021/05/24 00:58:00;;;;;;;2.83;1.95;;;;;;;40.86;26.94;161975.44;1699126;84;21302;-81
2021/05/24 01:00:45;;;;;;;2.05;1.82;;;;;;;40.83;26.98;161968.73;1681219;84;21385;-82
2021/05/24 01:03:17;;;;;;;3.62;1.95;;;;;;;40.76;27.06;161948.59;1698535;84;21223;-81
2021/05/24 01:05:50;;;;;;;5.45;2.08;;;;;;;40.71;27.11;161936.47;1698699;84;21872;-82
2021/05/24 01:08:24;;;;;;;3.42;2.30;;;;;;;40.77;27.08;161951.28;1698701;84;22067;-81
2021/05/24 01:10:56;;;;;;;4.55;2.15;;;;;;;40.81;27.09;161962.00;1698641;84;21245;-81
2021/05/24 01:13:31;;;;;;;3.42;2.10;;;;;;;40.78;27.14;161953.98;1707009;83;21252;-81
2021/05/24 01:16:03;;;;;;;3.15;2.27;;;;;;;40.72;27.20;161939.16;1716518;83;21871;-82
2021/05/24 01:19:44;;;;;;;4.58;2.10;;;;;;;40.76;27.19;161948.59;1716356;83;21273;-82
2021/05/24 01:22:20;;;;;;;3.50;2.12;;;;;;;40.69;27.30;161929.72;1716166;83;21372;-81
2021/05/24 01:24:53;;;;;;;6.03;2.20;;;;;;;40.65;27.36;161919.03;1716109;83;21921;-83
2021/05/24 01:27:26;;;;;;;4.95;2.25;;;;;;;40.39;27.63;161849.25;1715995;83;21391;-82
2021/05/24 01:30:01;;;;;;;3.25;1.90;;;;;;;40.71;27.40;161935.11;1716402;83;21209;-82
2021/05/24 01:32:34;;;;;;;3.08;2.00;;;;;;;40.67;27.52;161925.72;1716217;83;21218;-83
2021/05/24 01:35:08;;;;;;;2.67;1.80;;;;;;;40.64;27.53;161916.34;1716112;83;21780;-82
2021/05/24 01:37:42;;;;;;;2.52;1.70;;;;;;;40.68;27.54;161928.41;1716114;83;21866;-82
2021/05/24 01:40:15;;;;;;;8.93;1.98;;;;;;;40.80;27.49;161959.36;1715972;83;21450;-82
2021/05/24 01:42:51;;;;;;;3.17;2.25;;;;;;;40.72;27.58;161939.16;1715897;83;21248;-82
2021/05/24 01:45:24;;;;;;;3.05;2.30;;;;;;;40.50;27.82;161878.75;1695008;83;21238;-82
2021/05/24 01:47:57;;;;;;;3.08;2.00;;;;;;;40.78;27.65;161955.30;1715790;83;21226;-83
2021/05/24 01:50:30;;;;;;;4.40;2.42;;;;;;;40.84;27.61;161970.06;1715953;83;21352;-82
2021/05/24 01:53:02;;;;;;;2.10;1.87;;;;;;;40.71;27.72;161935.11;1716343;83;21399;-82
2021/05/24 01:55:35;;;;;;;2.40;2.08;;;;;;;40.64;27.77;161917.66;1716194;83;21728;-82
2021/05/24 01:58:08;;;;;;;5.10;2.55;;;;;;;40.61;27.81;161908.28;1715920;83;21281;-83
2021/05/24 02:00:42;;;;;;;2.90;2.10;;;;;;;40.57;27.89;161897.58;1715529;83;21256;-83
2021/05/24 02:03:17;;;;;;;4.97;2.37;;;;;;;40.60;27.91;161905.59;1715988;83;21221;-82
2021/05/24 02:05:53;;;;;;;2.42;1.98;;;;;;;40.65;27.89;161919.03;1716074;83;21383;-82
2021/05/24 02:08:26;;;;;;;3.08;2.20;;;;;;;40.63;27.95;161914.97;1716262;83;21392;-82
2021/05/24 02:11:03;;;;;;;3.50;2.02;;;;;;;40.62;27.99;161910.97;1716275;83;21658;-82
2021/05/24 02:13:36;;;;;;;2.80;2.25;;;;;;;40.56;28.06;161896.20;1719352;83;21411;-82
2021/05/24 02:16:10;;;;;;;3.42;1.75;;;;;;;40.57;28.06;161898.91;1699226;83;21314;-82
2021/05/24 02:18:43;;;;;;;3.70;2.30;;;;;;;40.53;28.16;161886.83;1704637;83;21195;-82
2021/05/24 02:21:15;;;;;;;2.80;1.82;;;;;;;40.51;28.19;161882.77;1699172;84;21238;-82
2021/05/24 02:23:48;;;;;;;2.67;1.90;;;;;;;40.58;28.14;161900.22;1699093;84;21372;-82
2021/05/24 02:26:22;;;;;;;3.02;1.75;;;;;;;40.43;28.29;161860.00;1699117;84;21226;-82
2021/05/24 02:28:54;;;;;;;2.80;1.77;;;;;;;39.55;28.74;161622.47;1699220;84;21249;-83
2021/05/24 02:31:26;;;;;;;4.08;1.80;;;;;;;40.69;28.16;161929.72;1699292;84;22001;-83
2021/05/24 02:33:59;;;;;;;1.80;1.50;;;;;;;40.94;27.93;161998.27;1699091;84;21211;-82
2021/05/24 02:36:31;;;;;;;2.27;1.85;;;;;;;41.05;27.84;162027.78;1699142;84;21277;-83
2021/05/24 02:39:07;;;;;;;2.55;1.40;;;;;;;39.94;28.67;161728.47;1699110;84;21285;-82
2021/05/24 02:41:40;;;;;;;2.08;1.57;;;;;;;39.51;28.85;161611.72;1699291;84;21314;-83
2021/05/24 02:44:14;;;;;;;1.87;1.57;;;;;;;40.46;28.43;161868.00;1699219;84;21368;-83
2021/05/24 02:46:47;;;;;;;2.47;1.57;;;;;;;40.41;28.45;161855.94;1699236;84;21371;-83
2021/05/24 02:49:19;;;;;;;2.37;1.30;;;;;;;41.02;28.02;162021.09;1699269;84;21496;-83
2021/05/24 02:51:51;;;;;;;2.22;1.62;;;;;;;40.79;28.16;161957.98;1699404;84;21793;-82
2021/05/24 02:54:24;;;;;;;4.33;1.87;;;;;;;40.79;28.19;161956.67;1699150;84;22071;-83
2021/05/24 02:56:57;;;;;;;4.20;1.70;;;;;;;40.64;28.31;161917.66;1699186;84;21821;-83
2021/05/24 02:59:29;;;;;;;3.02;1.40;;;;;;;40.64;28.31;161917.66;1699059;84;21520;-83
2021/05/24 03:02:02;;;;;;;2.70;1.40;;;;;;;40.57;28.39;161898.91;1699103;84;21214;-83
2021/05/24 03:04:35;;;;;;;2.67;1.95;;;;;;;41.10;28.02;162041.19;1699236;84;21315;-82
2021/05/24 03:07:08;;;;;;;3.10;1.40;;;;;;;40.63;28.38;161914.97;1699079;84;21234;-82
2021/05/24 03:09:41;;;;;;;2.90;1.52;;;;;;;40.60;28.41;161905.59;1699251;84;21729;-82
2021/05/24 03:12:14;;;;;;;2.15;1.35;;;;;;;40.41;28.57;161855.94;1699176;84;21230;-82
2021/05/24 03:14:48;;;;;;;3.17;1.55;;;;;;;40.43;28.59;161861.31;1698992;83;21222;-82
2021/05/24 03:17:20;;;;;;;1.90;1.47;;;;;;;40.49;28.57;161877.44;1699064;84;21198;-83
2021/05/24 03:19:52;;;;;;;1.98;1.30;;;;;;;40.44;28.60;161862.69;1699110;84;21277;-82
2021/05/24 03:22:25;;;;;;;2.50;1.20;;;;;;;40.46;28.63;161869.37;1699194;84;21860;-82
2021/05/24 03:24:57;;;;;;;1.30;1.20;;;;;;;40.43;28.65;161861.31;1699088;84;21229;-82
2021/05/24 03:27:30;;;;;;;1.80;1.40;;;;;;;40.38;28.70;161846.56;1699191;84;21361;-82
2021/05/24 03:30:06;;;;;;;4.00;1.42;;;;;;;40.35;28.73;161839.86;1699141;84;21218;-82
2021/05/24 03:32:39;;;;;;;2.27;1.32;;;;;;;40.38;28.79;161847.92;1699028;84;21286;-82
2021/05/24 03:35:12;;;;;;;7.00;1.40;;;;;;;40.28;28.86;161821.00;1699202;84;21717;-82
2021/05/24 03:37:44;;;;;;;1.60;1.30;;;;;;;40.21;28.95;161802.23;1699181;84;21840;-83
2021/05/24 03:40:18;;;;;;;1.52;0.90;;;;;;;40.18;29.02;161794.17;1698978;84;21222;-83
2021/05/24 03:42:50;;;;;;;1.77;1.35;;;;;;;40.20;29.02;161799.55;1699064;84;21479;-83
2021/05/24 03:45:23;;;;;;;1.32;1.10;;;;;;;40.36;28.95;161842.55;1698986;84;21217;-84
2021/05/24 03:47:56;;;;;;;2.25;1.40;;;;;;;40.29;29.04;161823.69;1699107;84;21214;-84
2021/05/24 03:50:28;;;;;;;1.45;1.10;;;;;;;40.24;29.14;161810.30;1699230;84;22186;-84
2021/05/24 03:53:02;;;;;;;2.17;0.95;;;;;;;40.19;29.20;161795.55;1699004;83;21231;-83
2021/05/24 03:55:34;;;;;;;2.12;1.10;;;;;;;40.22;29.29;161803.61;1698969;84;21222;-82
2021/05/24 03:58:06;;;;;;;1.77;1.27;;;;;;;40.28;29.28;161819.69;1699270;84;21400;-82
2021/05/24 04:00:39;;;;;;;1.77;1.20;;;;;;;40.56;29.18;161896.20;1698196;84;21249;-84
2021/05/24 04:03:11;;;;;;;1.55;1.20;;;;;;;40.42;29.45;161858.63;1698228;84;21230;-82
2021/05/24 04:05:46;;;;;;;2.22;1.40;;;;;;;40.48;29.56;161874.75;1698300;84;21213;-82
2021/05/24 04:08:19;;;;;;;3.35;1.47;;;;;;;40.64;29.47;161916.34;1699139;83;22056;-80
2021/05/24 04:10:56;;;;;;;1.67;1.27;;;;;;;40.73;29.44;161940.48;1699245;84;21756;-82
2021/05/24 04:13:26;;;;;;;2.37;1.60;;;;;;;40.64;29.49;161917.66;1699120;84;21896;-84
2021/05/24 04:15:59;;;;;;;2.02;1.10;;;;;;;40.71;29.49;161936.47;1699056;84;21289;-82
2021/05/24 04:18:35;;;;;;;3.22;1.57;;;;;;;39.61;30.48;161639.91;1699284;84;21844;-81
2021/05/24 04:21:08;;;;;;;2.30;1.15;;;;;;;38.51;31.35;161342.12;1699209;84;21210;-83
2021/05/24 04:23:41;;;;;;;2.20;1.00;;;;;;;40.14;30.20;161782.11;1699103;84;21289;-81
2021/05/24 04:26:14;;;;;;;1.37;1.10;;;;;;;40.27;30.02;161817.00;1699124;84;21377;-81
2021/05/24 04:28:47;;;;;;;1.57;1.00;;;;;;;40.17;30.12;161791.48;1699041;84;21372;-81
2021/05/24 04:31:20;;;;;;;2.10;1.27;;;;;;;40.11;30.15;161775.41;1699131;84;21277;-82
2021/05/24 04:33:52;;;;;;;1.85;1.02;;;;;;;39.95;30.26;161732.47;1699356;84;21725;-80
2021/05/24 04:36:25;;;;;;;1.25;1.00;;;;;;;39.97;30.30;161737.84;1699049;84;22058;-78
2021/05/24 04:38:57;;;;;;;1.02;0.93;;;;;;;39.82;30.44;161696.22;1699165;84;22043;-77
2021/05/24 04:41:30;;;;;;;2.25;0.90;;;;;;;39.90;30.39;161716.34;1698316;84;21269;-77
2021/05/24 04:44:19;;;;;;;2.17;0.95;;;;;;;39.84;30.43;161701.59;1697739;84;21559;-78
2021/05/24 04:46:43;;;;;;;1.35;0.90;;;;;;;39.93;30.41;161725.78;1699193;83;21420;-79
2021/05/24 04:49:16;;;;;;;0.90;0.70;;;;;;;39.80;30.52;161689.53;1697675;84;21214;-77
2021/05/24 04:51:48;;;;;;;1.70;0.80;;;;;;;39.81;30.50;161692.22;1697766;84;21223;-77
2021/05/24 04:54:21;;;;;;;1.90;1.15;;;;;;;40.16;30.22;161788.80;1697903;84;21218;-79
2021/05/24 04:56:54;;;;;;;2.22;1.00;;;;;;;39.89;30.46;161713.66;1697914;84;21823;-78
2021/05/24 04:59:26;;;;;;;1.10;0.78;;;;;;;39.87;30.51;161708.28;1698023;84;22096;-76
2021/05/24 05:01:59;;;;;;;1.90;0.80;;;;;;;39.92;30.45;161723.09;1697962;84;21213;-77
2021/05/24 05:04:31;;;;;;;1.62;0.82;;;;;;;39.82;30.51;161694.84;1697960;84;21285;-77
2021/05/24 05:07:04;;;;;;;0.90;0.80;;;;;;;39.72;30.54;161669.41;1698143;84;21231;-76
2021/05/24 05:09:36;;;;;;;1.35;0.90;;;;;;;39.63;30.59;161643.91;1698207;84;21233;-76
2021/05/24 05:12:10;;;;;;;1.47;1.00;;;;;;;39.70;30.54;161662.72;1698205;84;21480;-77
2021/05/24 05:14:44;;;;;;;3.05;0.90;;;;;;;39.59;30.57;161634.53;1697932;84;21325;-76
2021/05/24 05:17:17;;;;;;;1.95;1.00;;;;;;;39.76;30.41;161680.09;1703508;83;21381;-76
2021/05/24 05:19:52;;;;;;;0.90;0.80;;;;;;;39.71;30.47;161666.72;1698190;84;22065;-77
2021/05/24 05:22:27;;;;;;;2.25;1.00;;;;;;;39.60;30.56;161635.84;1698121;84;21239;-76
2021/05/24 05:25:00;;;;;;;0.80;0.72;;;;;;;39.62;30.58;161641.22;1697977;84;21210;-77
2021/05/24 05:27:34;;;;;;;1.05;0.90;;;;;;;39.62;30.61;161641.22;1698176;84;21237;-76
2021/05/24 05:30:10;;;;;;;1.22;1.00;;;;;;;39.58;30.64;161630.53;1698030;84;21234;-77
2021/05/24 05:32:49;;;;;;;0.82;0.72;;;;;;;39.56;30.70;161625.16;1698154;84;21828;-77
2021/05/24 05:35:33;;;;;;;2.15;1.02;;;;;;;39.52;30.84;161615.78;1695047;84;21235;-77
2021/05/24 05:38:07;;;;;;;2.25;1.42;;;;;;;39.56;30.82;161626.47;1698011;84;21269;-78
2021/05/24 05:40:51;;;;;;;2.22;1.00;;;;;;;39.76;30.59;161680.09;1697980;84;21948;-76
2021/05/24 05:43:58;;;;;;;1.80;0.90;;;;;;;39.84;30.58;161701.59;1698646;84;21432;-78
2021/05/24 05:46:48;;;;;;;1.98;1.30;;;;;;;39.92;30.51;161721.72;1698068;84;21620;-77
2021/05/24 05:49:39;;;;;;;1.37;1.05;;;;;;;39.85;30.61;161702.91;1698171;84;21924;-77
2021/05/24 05:52:26;;;;;;;1.87;1.10;;;;;;;39.92;30.62;161721.72;1697272;83;21258;-77
2021/05/24 05:55:00;;;;;;;1.85;1.40;;;;;;;40.05;30.50;161757.97;1697965;84;21945;-78
2021/05/24 05:57:39;;;;;;;1.47;1.12;;;;;;;40.04;30.51;161755.28;1698107;84;21460;-77
2021/05/24 06:00:16;;;;;;;1.95;1.12;;;;;;;39.97;30.58;161737.84;1698081;84;21241;-77
2021/05/24 06:02:52;;;;;;;1.95;1.25;;;;;;;40.02;30.58;161749.91;1698046;84;21412;-79
2021/05/24 06:05:28;;;;;;;1.30;1.10;;;;;;;39.98;30.57;161740.53;1698806;84;21226;-78
2021/05/24 06:08:02;;;;;;;1.85;1.12;;;;;;;40.01;30.59;161748.59;1698770;84;21207;-77
2021/05/24 06:10:35;;;;;;;2.52;1.40;;;;;;;40.00;30.52;161745.91;1698810;84;21369;-77
2021/05/24 06:13:14;;;;;;;3.30;1.55;;;;;;;39.91;30.56;161719.03;1697778;84;21848;-78
2021/05/24 06:15:49;;;;;;;2.02;1.20;;;;;;;39.91;30.56;161719.03;1704405;83;21218;-79
2021/05/24 06:18:23;;;;;;;0.82;0.82;;;;;;;39.89;30.50;161714.98;1700918;83;21365;-78
2021/05/24 06:20:57;;;;;;;2.37;1.12;;;;;;;39.74;30.57;161674.78;1716628;83;22101;-78
2021/05/24 06:23:31;;;;;;;1.62;0.90;;;;;;;39.64;30.60;161646.59;1716551;83;21233;-78
2021/05/24 06:26:12;;;;;;;1.95;0.90;;;;;;;39.65;30.53;161649.28;1715693;83;21352;-77
2021/05/24 06:28:50;;;;;;;1.50;1.00;;;;;;;39.65;30.52;161649.28;1715780;83;21379;-80
2021/05/24 06:31:23;;;;;;;1.10;1.00;;;;;;;39.69;30.45;161660.03;1715679;83;21269;-78
2021/05/24 06:34:02;;;;;;;1.50;1.10;;;;;;;39.57;30.58;161629.16;1715503;83;21218;-79
2021/05/24 06:36:36;;;;;;;1.10;0.87;;;;;;;39.44;30.66;161594.23;1715826;83;21876;-78
2021/05/24 06:39:08;;;;;;;2.77;1.30;;;;;;;39.44;30.70;161594.23;1715625;83;21273;-77
2021/05/24 06:41:52;;;;;;;6.60;2.35;;;;;;;39.50;30.65;161608.98;1715692;83;21408;-81
2021/05/24 06:44:33;;;;;;;1.07;0.80;;;;;;;39.62;30.54;161641.22;1715793;83;21387;-80
2021/05/24 06:47:07;;;;;;;3.22;0.72;;;;;;;39.62;30.49;161642.59;1715419;83;21371;-78
2021/05/24 06:49:40;;;;;;;1.35;1.10;;;;;;;39.50;30.63;161608.98;1715779;83;21273;-79
2021/05/24 06:52:13;;;;;;;2.12;0.80;;;;;;;39.54;30.61;161619.78;1715806;83;21904;-79
2021/05/24 06:54:45;;;;;;;1.12;0.80;;;;;;;39.51;30.59;161611.72;1715771;83;21202;-80
2021/05/24 06:57:18;;;;;;;1.57;0.82;;;;;;;39.39;30.64;161580.86;1715617;83;21237;-80
2021/05/24 06:59:50;;;;;;;1.20;0.78;;;;;;;39.36;30.67;161572.81;1715791;83;21245;-78
2021/05/24 07:02:23;;;;;;;1.30;0.88;;;;;;;39.38;30.65;161576.81;1715638;83;21372;-80
2021/05/24 07:04:56;;;;;;;1.35;0.70;;;;;;;39.39;30.60;161580.86;1715715;83;21847;-80
2021/05/24 07:07:28;;;;;;;1.75;0.80;;;;;;;39.38;30.60;161576.81;1715780;83;21269;-80
2021/05/24 07:10:02;;;;;;;1.55;0.65;;;;;;;39.40;30.55;161583.55;1715593;83;21229;-85
2021/05/24 07:12:35;;;;;;;1.30;0.65;;;;;;;39.31;30.56;161559.38;1715644;83;21451;-84
2021/05/24 07:15:08;;;;;;;0.93;0.70;;;;;;;39.40;30.46;161582.17;1715681;83;21418;-83
2021/05/24 07:17:41;;;;;;;0.88;0.60;;;;;;;39.26;30.54;161544.63;1716607;83;21368;-83
2021/05/24 07:20:14;;;;;;;0.90;0.50;;;;;;;39.30;30.48;161555.37;1715347;83;21394;-84
2021/05/24 07:22:47;;;;;;;4.05;0.80;;;;;;;39.29;30.48;161552.69;1715780;83;21352;-80
2021/05/24 07:25:19;;;;;;;1.10;0.72;;;;;;;39.24;30.53;161539.25;1715662;83;21320;-83
2021/05/24 07:27:52;;;;;;;0.42;0.42;;;;;;;39.26;30.56;161544.63;1715633;83;21221;-83
2021/05/24 07:30:24;;;;;;;0.40;0.40;;;;;;;39.21;30.63;161531.25;1715654;83;21353;-83
2021/05/24 07:32:57;;;;;;;2.12;0.60;;;;;;;39.13;30.70;161511.13;1715672;83;21515;-84
2021/05/24 07:35:30;;;;;;;0.60;0.50;;;;;;;39.11;30.72;161505.77;1715698;83;21237;-84
2021/05/24 07:38:04;;;;;;;0.50;0.50;;;;;;;38.98;30.88;161470.84;1715731;83;21946;-81
2021/05/24 07:40:37;;;;;;;0.93;0.62;;;;;;;39.01;30.88;161477.53;1715632;83;21367;-86
2021/05/24 07:43:09;;;;;;;0.40;0.40;;;;;;;39.09;30.90;161499.08;1716674;83;21230;-81
2021/05/24 07:45:42;;;;;;;1.22;0.70;;;;;;;39.30;30.68;161556.69;1715632;83;21273;-79
2021/05/24 07:48:15;;;;;;;0.50;0.50;;;;;;;39.32;30.68;161560.75;1715858;83;21665;-82
2021/05/24 07:50:50;;;;;;;0.98;0.78;;;;;;;39.29;30.66;161552.69;1715647;83;21240;-82
2021/05/24 07:53:23;;;;;;;0.60;0.50;;;;;;;39.40;30.61;161582.17;1715633;83;21371;-83
2021/05/24 07:55:55;;;;;;;0.50;0.50;;;;;;;39.37;30.65;161574.13;1716497;83;21580;-82
2021/05/24 07:58:30;;;;;;;0.53;0.50;;;;;;;39.30;30.74;161555.37;1715739;83;21237;-83
2021/05/24 08:01:02;;;;;;;0.72;0.70;;;;;;;39.14;30.87;161513.81;1715771;83;22069;-83
2021/05/24 08:03:34;;;;;;;0.60;0.60;;;;;;;39.25;30.73;161541.94;1715676;83;21519;-83
2021/05/24 08:06:07;;;;;;;0.62;0.60;;;;;;;39.28;30.68;161551.36;1715868;83;21372;-84
2021/05/24 08:08:39;;;;;;;0.78;0.78;;;;;;;39.47;30.58;161600.98;1715686;83;21513;-82
2021/05/24 08:11:15;;;;;;;1.62;0.62;;;;;;;39.47;30.57;161600.98;1715595;83;21567;-83
2021/05/24 08:13:50;;;;;;;0.62;0.62;;;;;;;39.48;30.55;161604.98;1715600;83;21923;-83
2021/05/24 08:16:24;;;;;;;0.75;0.50;;;;;;;39.52;30.55;161614.41;1715555;83;21384;-81
2021/05/24 08:18:58;;;;;;;1.77;0.80;;;;;;;39.50;30.64;161610.41;1715725;83;21214;-83
2021/05/24 08:21:34;;;;;;;0.55;0.55;;;;;;;39.46;30.70;161599.61;1716454;83;21225;-83
2021/05/24 08:24:09;;;;;;;1.57;0.72;;;;;;;39.26;30.89;161546.00;1716631;83;22114;-84
2021/05/24 08:26:41;;;;;;;1.70;0.82;;;;;;;39.15;31.15;161516.50;1715512;83;21384;-85
2021/05/24 08:29:14;;;;;;;2.92;1.15;;;;;;;39.19;31.10;161527.19;1716707;83;21285;-83
2021/05/24 08:31:49;;;;;;;4.22;0.60;;;;;;;38.94;31.40;161457.47;1715611;83;22067;-83
2021/05/24 08:34:24;;;;;;;1.77;0.72;;;;;;;38.84;31.59;161430.62;1716631;83;21395;-82
2021/05/24 08:36:57;;;;;;;0.80;0.80;;;;;;;38.86;31.57;161437.36;1716636;82;21249;-81
2021/05/24 08:39:30;;;;;;;1.15;0.65;;;;;;;38.93;31.63;161454.78;1715606;83;21250;-83
2021/05/24 08:42:03;;;;;;;1.57;0.80;;;;;;;38.93;31.61;161456.11;1716763;83;21724;-85
2021/05/24 08:44:38;;;;;;;0.98;0.72;;;;;;;38.92;31.68;161453.42;1715643;83;21878;-85
2021/05/24 08:47:12;;;;;;;1.45;0.80;;;;;;;38.90;31.73;161448.05;1716580;83;21480;-86
2021/05/24 08:49:49;;;;;;;1.17;0.70;;;;;;;38.91;31.76;161450.73;1714051;83;21446;-84
2021/05/24 08:52:21;;;;;;;0.75;0.72;;;;;;;38.98;31.78;161469.53;1716634;83;21784;-85
2021/05/24 08:54:54;;;;;;;1.37;0.70;;;;;;;39.14;31.70;161512.44;1716716;83;21237;-84
2021/05/24 09:01:06;;;;;;;0.93;0.60;;;;;;;39.28;31.59;161551.36;1715768;83;22113;-83
2021/05/24 09:03:41;;;;;;;1.35;0.62;;;;;;;39.31;31.72;161558.06;1715671;83;22200;-85
2021/05/24 09:06:14;;;;;;;2.17;0.65;;;;;;;39.43;31.72;161591.55;1715739;83;21344;-87
2021/05/24 09:08:47;;;;;;;1.15;0.80;;;;;;;39.85;31.40;161704.28;1716515;83;21534;-87
2021/05/24 09:11:34;;;;;;;1.30;0.80;;;;;;;39.83;31.50;161697.53;1716498;83;21404;-88
2021/05/24 09:14:19;;;;;;;2.25;0.82;;;;;;;39.82;31.63;161696.22;1716563;83;21249;-81
2021/05/24 09:17:02;;;;;;;0.82;0.60;;;;;;;39.76;31.76;161680.09;1711538;84;21241;-81
2021/05/24 09:19:37;;;;;;;1.00;0.80;;;;;;;39.72;31.86;161669.41;1711690;84;21248;-83
2021/05/24 09:22:10;;;;;;;3.70;0.75;;;;;;;39.68;31.94;161657.34;1708550;84;21745;-83
2021/05/24 09:24:45;;;;;;;1.12;0.70;;;;;;;39.77;31.82;161681.47;1698994;84;21352;-84
2021/05/24 09:27:35;;;;;;;2.12;0.80;;;;;;;39.69;32.07;161660.03;1699059;84;21218;-84
2021/05/24 09:30:07;;;;;;;1.27;0.70;;;;;;;39.81;31.87;161693.53;1699071;84;21372;-82
2021/05/24 09:32:42;;;;;;;1.12;0.90;;;;;;;38.26;32.93;161275.13;1698957;84;21230;-81
2021/05/24 09:35:15;;;;;;;1.52;0.90;;;;;;;39.71;31.95;161665.34;1698890;84;21770;-82
2021/05/24 09:37:49;;;;;;;1.07;0.60;;;;;;;39.93;31.73;161727.09;1698778;84;21376;-81
2021/05/24 09:40:25;;;;;;;1.10;0.68;;;;;;;39.82;31.68;161696.22;1698783;84;21222;-82
2021/05/24 09:43:03;;;;;;;0.88;0.82;;;;;;;39.71;31.72;161666.72;1698803;84;21448;-82
2021/05/24 09:45:40;;;;;;;2.27;0.95;;;;;;;39.50;31.98;161608.98;1697884;84;21225;-82
2021/05/24 09:48:13;;;;;;;0.98;0.70;;;;;;;39.68;31.75;161657.34;1697918;84;22227;-83
2021/05/24 09:50:55;;;;;;;2.98;0.80;;;;;;;39.70;31.69;161662.72;1697873;84;21274;-82
2021/05/24 09:53:27;;;;;;;1.40;0.70;;;;;;;39.80;31.50;161690.84;1698574;84;21253;-81
2021/05/24 09:56:11;;;;;;;1.45;0.50;;;;;;;39.83;31.42;161697.53;1697691;84;21242;-81
2021/05/24 09:58:45;;;;;;;3.58;0.90;;;;;;;39.75;31.54;161677.47;1697790;83;21246;-82
2021/05/24 10:01:22;;;;;;;1.17;0.90;;;;;;;39.65;31.70;161649.28;1654226;86;21222;-82
2021/05/24 10:03:58;;;;;;;1.05;0.68;;;;;;;39.73;31.83;161670.72;1716592;83;21278;-80
2021/05/24 10:06:34;;;;;;;0.57;0.50;;;;;;;39.79;31.70;161686.84;1715368;83;21363;-83
2021/05/24 10:09:12;;;;;;;2.15;0.80;;;;;;;39.71;31.75;161666.72;1715503;83;21276;-85
2021/05/24 10:11:52;;;;;;;1.37;0.60;;;;;;;40.10;31.44;161772.72;1716272;83;21284;-83
2021/05/24 10:14:28;;;;;;;0.47;0.40;;;;;;;39.76;31.62;161680.09;1716759;83;21377;-87
2021/05/24 10:20:42;;;;;;;0.93;0.70;;;;;;;40.00;31.34;161744.53;1715559;83;21217;-84
2021/05/24 10:23:15;;;;;;;0.65;0.60;;;;;;;40.04;31.05;161756.66;1716302;83;21428;-83
2021/05/24 10:25:47;;;;;;;1.25;0.50;;;;;;;39.86;31.18;161705.59;1695189;83;21229;-83
2021/05/24 10:28:22;;;;;;;0.62;0.60;;;;;;;39.83;31.21;161697.53;1718725;83;21375;-83
2021/05/24 10:30:58;;;;;;;0.95;0.70;;;;;;;39.92;31.09;161723.09;1716842;83;21483;-84
2021/05/24 10:33:44;;;;;;;0.70;0.60;;;;;;;39.93;31.04;161725.78;1719452;83;21427;-84
2021/05/24 10:36:23;;;;;;;1.37;0.72;;;;;;;39.88;31.10;161710.97;1718490;83;21431;-85
2021/05/24 10:39:11;;;;;;;3.40;0.90;;;;;;;39.98;30.96;161739.22;1719458;83;21646;-85
2021/05/24 10:42:00;;;;;;;2.15;0.80;;;;;;;39.99;30.99;161743.22;1718546;83;21907;-84
2021/05/24 10:44:44;;;;;;;2.47;0.90;;;;;;;40.11;31.03;161775.41;1719616;83;21384;-84
2021/05/24 10:47:27;;;;;;;1.95;0.75;;;;;;;40.05;31.07;161759.30;1719375;83;21792;-85
2021/05/24 10:50:11;;;;;;;1.32;0.80;;;;;;;40.15;30.79;161784.80;1718571;83;21439;-85
2021/05/24 10:53:04;;;;;;;1.92;0.75;;;;;;;40.25;30.75;161812.98;1695655;83;21225;-83
2021/05/24 10:55:44;;;;;;;0.85;0.62;;;;;;;40.32;30.61;161831.75;1716864;83;21253;-85
2021/05/24 10:58:20;;;;;;;0.60;0.60;;;;;;;40.39;30.72;161850.61;1718664;83;21237;-84
2021/05/24 11:01:06;;;;;;;1.17;0.72;;;;;;;40.36;30.82;161841.19;1718773;83;21390;-85
2021/05/24 11:03:43;;;;;;;0.68;0.50;;;;;;;40.52;30.51;161884.13;1718642;83;21874;-86
2021/05/24 11:06:15;;;;;;;1.52;0.55;;;;;;;40.50;30.46;161880.13;1718540;83;21531;-87
2021/05/24 11:09:06;;;;;;;0.65;0.53;;;;;;;40.59;30.30;161902.91;1718455;83;21241;-82
2021/05/24 11:11:41;;;;;;;1.10;0.40;;;;;;;40.62;30.08;161912.34;1718539;83;21202;-86
2021/05/24 11:14:14;;;;;;;1.47;0.70;;;;;;;40.62;30.15;161912.34;1718569;83;21418;-85
2021/05/24 11:16:53;;;;;;;1.00;0.70;;;;;;;40.76;30.20;161949.92;1718656;83;21241;-86
2021/05/24 11:19:28;;;;;;;1.20;0.60;;;;;;;40.77;29.98;161952.61;1718642;83;21395;-84
2021/05/24 11:22:32;;;;;;;0.78;0.60;;;;;;;40.84;29.86;161970.06;1718668;83;21898;-87
2021/05/24 11:28:15;;;;;;;0.55;0.50;;;;;;;40.90;29.91;161986.19;1710949;84;21278;-88
2021/05/24 11:31:15;;;;;;;2.37;0.60;;;;;;;40.97;29.73;162007.64;1710978;84;21748;-85
2021/05/24 11:33:53;;;;;;;0.60;0.60;;;;;;;41.02;29.82;162019.72;1699184;83;21249;-84
2021/05/24 11:36:40;;;;;;;1.62;0.60;;;;;;;41.08;29.69;162037.17;1711045;84;21210;-88
2021/05/24 11:39:34;;;;;;;1.07;0.60;;;;;;;41.29;29.53;162093.59;1713383;84;21234;-85
2021/05/24 11:42:15;;;;;;;0.88;0.68;;;;;;;41.16;29.50;162058.69;1711077;84;21272;-86
2021/05/24 11:44:49;;;;;;;0.72;0.60;;;;;;;41.18;29.49;162064.06;1705832;83;21844;-85
2021/05/24 11:47:28;;;;;;;1.00;0.55;;;;;;;41.22;29.46;162074.81;1712419;84;21190;-87
2021/05/24 11:50:09;;;;;;;1.35;0.50;;;;;;;41.38;29.30;162117.75;1712017;84;21884;-85
2021/05/24 11:52:42;;;;;;;1.43;0.50;;;;;;;41.32;29.34;162100.34;1712369;84;21360;-87
2021/05/24 11:55:16;;;;;;;0.37;0.37;;;;;;;41.36;29.11;162112.42;1710413;83;21210;-85
2021/05/24 11:57:52;;;;;;;0.80;0.60;;;;;;;41.45;29.02;162136.56;1711164;84;21253;-88
2021/05/24 12:00:30;;;;;;;0.53;0.53;;;;;;;41.75;28.65;162217.16;1711176;84;21420;-87
2021/05/24 12:07:07;;;;;;;0.80;0.50;;;;;;;39.90;29.95;161716.34;1711150;84;22100;-88
2021/05/24 12:09:50;;;;;;;0.65;0.57;;;;;;;41.39;28.92;162120.44;1709986;83;21229;-89
2021/05/24 12:12:37;;;;;;;5.50;0.50;;;;;;;41.61;28.53;162178.23;1711840;84;21760;-84
2021/05/24 12:15:15;;;;;;;0.47;0.47;;;;;;;41.73;28.60;162211.78;1711108;84;22089;-83
2021/05/24 12:17:52;;;;;;;0.80;0.57;;;;;;;41.69;28.50;162201.08;1710814;84;21281;-83